| Date | Time | Temp. (oF) | Dew Point (oF) | Rel. Hum. (%) | Press. (in.) | Wind Dir. (deg.) | Wind Speed (mph) | Hourly Rainfall (i n.) |
|
|---|---|---|---|---|---|---|---|---|---|
| 1 | 12/12 | 24:00 | 36 | 23 | 61 | 30.19 | 300 | 6 | 0.00 |
| 2 | 12/11 | 23:00 | 36 | 23 | 61 | 30.18 | 270 | 7 | 0.00 |
| 3 | 12/11 | 22:00 | 36 | 23 | 61 | 30.17 | 310 | 2 | 0.00 |
| 4 | 12/11 | 21:00 | 38 | 23 | 56 | 30.19 | 270 | 10 | 0.00 |
| 5 | 12/11 | 20:00 | 38 | 23 | 55 | 30.20 | 270 | 2 | 0.00 |
| 6 | 12/11 | 19:00 | 39 | 22 | 51 | 30.20 | 280 | 10 | 0.00 |
| 7 | 12/11 | 18:00 | 40 | 22 | 50 | 30.20 | 290 | 2 | 0.00 |
| 8 | 12/11 | 17:00 | 41 | 22 | 48 | 30.19 | 290 | 6 | 0.00 |
| 9 | 12/11 | 16:00 | 44 | 22 | 42 | 30.18 | 310 | 9 | 0.00 |
| 10 | 12/11 | 15:00 | 45 | 22 | 41 | 30.17 | 320 | 7 | 0.00 |
| 11 | 12/11 | 14:00 | 45 | 23 | 42 | 30.15 | 260 | 12 | 0.00 |
| 12 | 12/11 | 13:00 | 45 | 23 | 43 | 30.15 | 310 | 10 | 0.00 |
| 13 | 12/11 | 12:00 | 44 | 22 | 43 | 30.16 | 270 | 22 | 0.00 |
| 14 | 12/11 | 11:00 | 43 | 23 | 45 | 30.18 | 320 | 11 | 0.00 |
| 15 | 12/11 | 10:00 | 41 | 23 | 49 | 30.19 | 310 | 16 | 0.00 |
| 16 | 12/11 | 09:00 | 38 | 24 | 58 | 30.18 | 260 | 9 | 0.00 |
| 17 | 12/11 | 08:00 | 36 | 24 | 62 | 30.18 | 270 | 10 | 0.00 |
| 18 | 12/11 | 07:00 | 36 | 24 | 63 | 30.16 | 290 | 4 | 0.00 |
| 19 | 12/11 | 06:00 | 36 | 23 | 61 | 30.14 | 300 | 7 | 0.00 |
| 20 | 12/11 | 05:00 | 37 | 23 | 59 | 30.12 | 350 | 6 | 0.00 |
| 21 | 12/11 | 04:00 | 37 | 23 | 59 | 30.12 | 350 | 9 | 0.00 |
| 22 | 12/11 | 03:00 | 38 | 24 | 58 | 30.11 | 310 | 12 | 0.00 |
| 23 | 12/11 | 02:00 | 38 | 24 | 57 | 30.10 | 280 | 7 | 0.00 |
| 24 | 12/11 | 01:00 | 38 | 24 | 58 | 30.08 | 320 | 9 | 0.00 |